createdAt,value
2018-03-23T00:01:19.114Z,2.40
2018-03-23T00:03:47.117Z,2.40
2018-03-23T00:06:15.123Z,2.40
2018-03-23T00:08:43.112Z,2.40
2018-03-23T00:11:11.121Z,2.40
2018-03-23T00:13:39.131Z,2.40
2018-03-23T00:16:07.888Z,2.40
2018-03-23T00:18:35.888Z,2.40
2018-03-23T00:21:03.906Z,2.40
2018-03-23T00:23:32.661Z,2.50
2018-03-23T00:26:00.673Z,2.40
2018-03-23T00:28:28.668Z,2.50
2018-03-23T00:30:57.433Z,2.50
2018-03-23T00:33:25.442Z,2.40
2018-03-23T00:35:54.209Z,2.40
2018-03-23T00:38:22.192Z,2.30
2018-03-23T00:40:50.203Z,2.30
2018-03-23T00:43:18.200Z,2.40
2018-03-23T00:45:46.969Z,2.50
2018-03-23T00:48:14.969Z,2.40
2018-03-23T00:50:42.964Z,2.50
2018-03-23T00:53:11.728Z,2.40
2018-03-23T00:55:39.750Z,2.40
2018-03-23T00:58:08.516Z,2.50
2018-03-23T01:00:36.513Z,2.50
2018-03-23T01:03:04.520Z,2.50
2018-03-23T01:05:34.295Z,2.50
2018-03-23T01:08:02.289Z,2.40
2018-03-23T01:10:30.300Z,2.40
2018-03-23T01:12:59.076Z,2.40
2018-03-23T01:15:27.081Z,2.40
2018-03-23T01:17:56.859Z,2.50
2018-03-23T01:20:24.864Z,2.50
2018-03-23T01:22:52.860Z,2.50
2018-03-23T01:25:20.860Z,2.50
2018-03-23T01:27:49.641Z,2.60
2018-03-23T01:30:17.633Z,2.50
2018-03-23T01:32:47.494Z,2.60
2018-03-23T01:35:16.331Z,2.60
2018-03-23T01:37:44.324Z,2.50
2018-03-23T01:40:12.329Z,2.60
2018-03-23T01:42:41.092Z,2.60
2018-03-23T01:45:09.085Z,2.50
2018-03-23T01:47:37.093Z,2.60
2018-03-23T01:50:05.106Z,2.60
2018-03-23T01:52:33.093Z,2.60
2018-03-23T01:55:01.103Z,2.50
2018-03-23T01:57:29.158Z,2.60
2018-03-23T01:59:57.111Z,2.50
2018-03-23T02:02:25.884Z,2.50
2018-03-23T02:04:54.653Z,2.50
2018-03-23T02:07:22.644Z,2.50
2018-03-23T02:09:50.643Z,2.50
2018-03-23T02:12:18.653Z,2.50
2018-03-23T02:14:47.412Z,2.60
2018-03-23T02:17:15.412Z,2.60
2018-03-23T02:19:43.433Z,2.70
2018-03-23T02:22:12.180Z,2.70
2018-03-23T02:24:40.179Z,2.70
2018-03-23T02:27:08.188Z,2.60
2018-03-23T02:29:36.940Z,2.70
2018-03-23T02:32:04.961Z,2.60
2018-03-23T02:34:32.959Z,2.60
2018-03-23T02:37:01.735Z,2.60
2018-03-23T02:39:30.079Z,2.50
2018-03-23T02:41:58.825Z,2.50
2018-03-23T02:44:26.813Z,2.50
2018-03-23T02:46:54.827Z,2.60
2018-03-23T02:49:22.875Z,2.50
2018-03-23T02:51:50.820Z,2.60
2018-03-23T02:54:18.837Z,2.50
2018-03-23T02:56:46.840Z,2.50
2018-03-23T02:59:15.596Z,2.50
2018-03-23T03:01:43.600Z,2.40
2018-03-23T03:04:11.609Z,2.40
2018-03-23T03:06:40.370Z,2.40
2018-03-23T03:09:08.651Z,2.40
2018-03-23T03:11:36.665Z,2.40
2018-03-23T03:14:04.651Z,2.40
2018-03-23T03:16:32.701Z,2.40
2018-03-23T03:19:01.420Z,2.40
2018-03-23T03:21:30.928Z,2.30
2018-03-23T03:23:58.932Z,2.30
2018-03-23T03:26:26.939Z,2.30
2018-03-23T03:28:55.693Z,2.30
2018-03-23T03:31:23.697Z,2.20
2018-03-23T03:33:51.696Z,2.30
2018-03-23T03:36:20.462Z,2.30
2018-03-23T03:38:48.464Z,2.20
2018-03-23T03:41:16.476Z,2.30
2018-03-23T03:43:44.471Z,2.30
2018-03-23T03:46:12.479Z,2.30
2018-03-23T03:48:40.487Z,2.30
2018-03-23T03:51:08.482Z,2.30
2018-03-23T03:53:36.484Z,2.30
2018-03-23T03:56:05.256Z,2.40
2018-03-23T03:58:33.254Z,2.30
2018-03-23T04:01:01.251Z,2.40
2018-03-23T04:03:29.259Z,2.50
2018-03-23T04:05:57.260Z,2.50
2018-03-23T04:08:25.265Z,2.40
2018-03-23T04:10:53.283Z,2.50
2018-03-23T04:13:22.040Z,2.50
2018-03-23T04:15:50.052Z,2.50
2018-03-23T04:18:18.812Z,2.50
2018-03-23T04:20:46.808Z,2.50
2018-03-23T04:23:14.812Z,2.40
2018-03-23T04:25:43.589Z,2.50
2018-03-23T04:28:11.573Z,2.40
2018-03-23T04:30:39.575Z,2.60
2018-03-23T04:33:07.584Z,2.60
2018-03-23T04:35:35.580Z,2.60
2018-03-23T04:38:03.592Z,2.50
2018-03-23T04:40:31.605Z,2.60
2018-03-23T04:42:59.588Z,2.60
2018-03-23T04:45:27.596Z,2.60
2018-03-23T04:47:55.614Z,2.70
2018-03-23T04:50:23.595Z,2.70
2018-03-23T04:52:51.600Z,2.60
2018-03-23T04:55:19.609Z,2.60
2018-03-23T04:57:48.368Z,2.50
2018-03-23T05:00:16.380Z,2.40
2018-03-23T05:02:44.376Z,2.50
2018-03-23T05:05:13.156Z,2.60
2018-03-23T05:07:41.156Z,2.50
2018-03-23T05:10:09.928Z,2.50
2018-03-23T05:12:37.974Z,2.50
2018-03-23T05:15:05.976Z,2.50
2018-03-23T05:17:33.985Z,2.50
2018-03-23T05:20:01.982Z,2.60
2018-03-23T05:22:29.993Z,2.60
2018-03-23T05:24:58.756Z,2.50
2018-03-23T05:27:27.667Z,2.50
2018-03-23T05:29:55.672Z,2.60
2018-03-23T05:32:24.444Z,2.50
2018-03-23T05:34:52.448Z,2.50
2018-03-23T05:37:21.216Z,2.50
2018-03-23T05:39:49.215Z,2.50
2018-03-23T05:42:17.219Z,2.60
2018-03-23T05:44:45.988Z,2.60
2018-03-23T05:47:13.998Z,2.60
2018-03-23T05:49:42.752Z,2.60
2018-03-23T05:52:10.753Z,2.60
2018-03-23T05:54:38.766Z,2.60
2018-03-23T05:57:07.523Z,2.50
2018-03-23T05:59:35.524Z,2.50
2018-03-23T06:02:03.536Z,2.60
2018-03-23T06:04:32.292Z,2.60
2018-03-23T06:07:00.296Z,2.60
2018-03-23T06:09:28.300Z,2.70
2018-03-23T06:11:57.055Z,2.70
2018-03-23T06:14:25.081Z,2.70
2018-03-23T06:16:53.864Z,2.60
2018-03-23T06:19:21.852Z,2.60
2018-03-23T06:21:50.628Z,2.70
2018-03-23T06:24:18.632Z,2.70
2018-03-23T06:26:46.630Z,2.70
2018-03-23T06:29:15.396Z,2.70
2018-03-23T06:31:43.403Z,2.70
2018-03-23T06:34:11.399Z,2.80
2018-03-23T06:36:40.160Z,2.80
2018-03-23T06:39:08.268Z,2.80
2018-03-23T06:41:36.252Z,2.90
2018-03-23T06:44:04.263Z,3.00
2018-03-23T06:46:32.265Z,3.10
2018-03-23T06:49:00.251Z,3.10
2018-03-23T06:51:28.256Z,3.10
2018-03-23T06:53:56.261Z,3.10
2018-03-23T06:56:24.248Z,3.10
2018-03-23T06:58:53.020Z,3.20
2018-03-23T07:01:21.028Z,3.20
2018-03-23T07:03:49.015Z,3.20
2018-03-23T07:06:17.793Z,3.20
2018-03-23T07:08:45.795Z,3.20
2018-03-23T07:11:14.556Z,3.20
2018-03-23T07:13:42.560Z,3.20
2018-03-23T07:16:10.564Z,3.30
2018-03-23T07:18:39.324Z,3.40
2018-03-23T07:21:07.323Z,3.30
2018-03-23T07:23:35.330Z,3.40
2018-03-23T07:26:03.312Z,3.40
2018-03-23T07:28:32.111Z,3.30
2018-03-23T07:31:00.120Z,3.30
2018-03-23T07:33:28.112Z,3.40
2018-03-23T07:35:56.148Z,3.40
2018-03-23T07:38:24.149Z,3.40
2018-03-23T07:40:52.911Z,3.40
2018-03-23T07:43:20.921Z,3.40
2018-03-23T07:45:48.926Z,3.50
2018-03-23T07:48:17.680Z,3.50
2018-03-23T07:50:45.678Z,3.50
2018-03-23T07:53:13.680Z,3.60
2018-03-23T07:55:42.440Z,3.50
2018-03-23T07:58:10.443Z,3.50
2018-03-23T08:00:38.448Z,3.60
2018-03-23T08:03:07.202Z,3.60
2018-03-23T08:05:35.212Z,3.50
2018-03-23T08:08:03.212Z,3.60
2018-03-23T08:10:31.980Z,3.60
2018-03-23T08:12:59.984Z,3.60
2018-03-23T08:15:27.992Z,3.70
2018-03-23T08:17:55.988Z,3.70
2018-03-23T08:20:24.004Z,3.80
2018-03-23T08:22:52.007Z,3.90
2018-03-23T08:25:19.996Z,3.90
2018-03-23T08:27:48.009Z,3.90
2018-03-23T08:30:16.021Z,3.90
2018-03-23T08:32:44.853Z,3.90
2018-03-23T08:35:12.855Z,3.90
2018-03-23T08:37:40.872Z,3.90
2018-03-23T08:40:08.860Z,3.90
2018-03-23T08:42:36.864Z,3.90
2018-03-23T08:45:04.864Z,4.00
2018-03-23T08:47:32.880Z,4.00
2018-03-23T08:50:01.642Z,4.10
2018-03-23T08:52:29.645Z,4.10
2018-03-23T08:54:57.636Z,4.10
2018-03-23T08:57:26.408Z,4.10
2018-03-23T08:59:54.416Z,4.10
2018-03-23T09:02:23.192Z,4.10
2018-03-23T09:04:51.192Z,4.10
2018-03-23T09:07:19.188Z,4.10
2018-03-23T09:09:47.944Z,4.20
2018-03-23T09:12:15.944Z,4.10
2018-03-23T09:14:43.944Z,4.10
2018-03-23T09:17:12.700Z,4.00
2018-03-23T09:19:40.704Z,4.00
2018-03-23T09:22:08.720Z,4.00
2018-03-23T09:24:37.483Z,4.10
2018-03-23T09:27:05.488Z,4.00
2018-03-23T09:29:33.497Z,4.00
2018-03-23T09:32:02.263Z,3.90
2018-03-23T09:34:30.262Z,3.80
2018-03-23T09:36:59.032Z,4.00
2018-03-23T09:39:27.028Z,3.90
2018-03-23T09:41:55.029Z,4.00
2018-03-23T09:44:23.800Z,4.00
2018-03-23T09:46:51.796Z,4.00
2018-03-23T09:49:19.800Z,4.10
2018-03-23T09:51:48.580Z,4.10
2018-03-23T09:54:16.555Z,4.10
2018-03-23T09:56:44.564Z,4.30
2018-03-23T09:59:13.336Z,4.40
2018-03-23T10:01:41.328Z,4.40
2018-03-23T10:04:09.332Z,4.40
2018-03-23T10:06:38.099Z,4.50
2018-03-23T10:09:06.088Z,4.40
2018-03-23T10:11:34.099Z,4.60
2018-03-23T10:14:02.868Z,4.50
2018-03-23T10:16:30.859Z,4.50
2018-03-23T10:18:58.871Z,4.50
2018-03-23T10:21:27.640Z,4.40
2018-03-23T10:23:57.147Z,4.40
2018-03-23T10:26:25.158Z,4.40
2018-03-23T10:28:53.159Z,4.40
2018-03-23T10:31:21.153Z,4.40
2018-03-23T10:33:49.152Z,4.50
2018-03-23T10:36:17.163Z,4.50
2018-03-23T10:38:45.148Z,4.60
2018-03-23T10:41:13.156Z,4.50
2018-03-23T10:43:41.932Z,4.50
2018-03-23T10:46:09.924Z,4.40
2018-03-23T10:48:37.949Z,4.50
2018-03-23T10:51:06.718Z,4.60
2018-03-23T10:53:34.712Z,4.60
2018-03-23T10:56:03.486Z,4.70
2018-03-23T10:58:31.484Z,4.70
2018-03-23T11:01:06.016Z,4.50
2018-03-23T11:03:34.032Z,4.50
2018-03-23T11:06:02.029Z,4.50
2018-03-23T11:08:30.036Z,4.50
2018-03-23T11:10:58.044Z,4.60
2018-03-23T11:13:26.036Z,4.70
2018-03-23T11:15:54.804Z,4.80
2018-03-23T11:18:22.808Z,4.80
2018-03-23T11:20:50.810Z,4.80
2018-03-23T11:23:19.575Z,4.70
2018-03-23T11:25:47.584Z,4.70
2018-03-23T11:28:16.340Z,4.80
2018-03-23T11:30:44.350Z,4.80
2018-03-23T11:33:12.348Z,4.90
2018-03-23T11:35:41.107Z,5.00
2018-03-23T11:38:09.116Z,4.90
2018-03-23T11:40:37.148Z,5.00
2018-03-23T11:43:05.141Z,5.10
2018-03-23T11:45:33.148Z,5.20
2018-03-23T11:48:01.152Z,5.10
2018-03-23T11:50:29.200Z,5.10
2018-03-23T11:52:57.223Z,5.20
2018-03-23T11:55:25.227Z,5.20
2018-03-23T11:57:53.217Z,5.20
2018-03-23T12:00:21.225Z,5.30
2018-03-23T12:02:49.239Z,5.30
2018-03-23T12:05:18.751Z,5.20
2018-03-23T12:07:46.752Z,5.20
2018-03-23T12:10:14.760Z,5.20
2018-03-23T12:12:43.517Z,5.40
2018-03-23T12:15:11.513Z,5.30
2018-03-23T12:17:39.511Z,5.40
2018-03-23T12:20:08.268Z,5.40
2018-03-23T12:22:36.272Z,5.30
2018-03-23T12:25:04.272Z,5.30
2018-03-23T12:27:32.291Z,5.30
2018-03-23T12:30:01.060Z,5.30
2018-03-23T12:32:29.836Z,5.20
2018-03-23T12:34:57.866Z,5.20
2018-03-23T12:37:25.828Z,5.30
2018-03-23T12:39:54.603Z,5.40
2018-03-23T12:42:22.593Z,5.30
2018-03-23T12:44:50.600Z,5.40
2018-03-23T12:47:19.368Z,5.30
2018-03-23T12:49:47.361Z,5.30
2018-03-23T12:52:15.380Z,5.40
2018-03-23T12:54:43.400Z,5.50
2018-03-23T12:57:11.401Z,5.60
2018-03-23T12:59:39.400Z,5.50
2018-03-23T13:02:07.407Z,5.60
2018-03-23T13:04:35.399Z,5.60
2018-03-23T13:07:03.429Z,5.60
2018-03-23T13:09:32.283Z,5.60
2018-03-23T13:12:00.272Z,5.60
2018-03-23T13:14:28.275Z,5.60
2018-03-23T13:16:56.298Z,5.80
2018-03-23T13:19:24.280Z,6.00
2018-03-23T13:21:53.071Z,6.00
2018-03-23T13:24:21.060Z,6.00
2018-03-23T13:26:49.048Z,5.90
2018-03-23T13:29:17.819Z,6.10
2018-03-23T13:31:45.824Z,6.00
2018-03-23T13:34:13.828Z,6.10
2018-03-23T13:36:42.696Z,6.00
2018-03-23T13:39:10.701Z,6.00
2018-03-23T13:41:38.692Z,6.00
2018-03-23T13:44:07.465Z,6.00
2018-03-23T13:46:35.472Z,6.00
2018-03-23T13:49:03.458Z,6.00
2018-03-23T13:51:32.228Z,5.80
2018-03-23T13:54:00.236Z,5.80
2018-03-23T13:56:28.987Z,5.80
2018-03-23T13:59:02.767Z,5.70
2018-03-23T14:01:37.228Z,5.70
2018-03-23T14:04:05.227Z,5.70
2018-03-23T14:06:33.236Z,5.70
2018-03-23T14:09:02.744Z,5.80
2018-03-23T14:11:30.749Z,5.70
2018-03-23T14:13:58.754Z,6.00
2018-03-23T14:16:27.535Z,6.20
2018-03-23T14:18:57.040Z,6.10
2018-03-23T14:21:25.053Z,6.20
2018-03-23T14:23:53.816Z,6.30
2018-03-23T14:26:21.820Z,6.20
2018-03-23T14:28:49.905Z,6.30
2018-03-23T14:31:17.830Z,6.30
2018-03-23T14:33:45.829Z,6.20
2018-03-23T14:36:13.836Z,6.20
2018-03-23T14:38:41.824Z,6.20
2018-03-23T14:41:09.829Z,6.30
2018-03-23T14:43:38.607Z,6.50
2018-03-23T14:46:06.601Z,6.50
2018-03-23T14:48:35.376Z,6.40
2018-03-23T14:51:03.379Z,6.40
2018-03-23T14:53:31.371Z,6.40
2018-03-23T14:56:00.141Z,6.10
2018-03-23T14:58:28.153Z,6.10
2018-03-23T15:00:56.912Z,6.10
2018-03-23T15:03:24.924Z,6.00
2018-03-23T15:05:52.931Z,6.00
2018-03-23T15:08:21.698Z,6.00
2018-03-23T15:10:49.707Z,6.00
2018-03-23T15:13:18.473Z,6.00
2018-03-23T15:15:46.460Z,5.90
2018-03-23T15:18:14.459Z,6.10
2018-03-23T15:20:42.465Z,6.10
2018-03-23T15:23:10.465Z,6.20
2018-03-23T15:25:38.483Z,6.50
2018-03-23T15:28:06.476Z,6.90
2018-03-23T15:30:34.477Z,7.40
2018-03-23T15:33:02.476Z,7.70
2018-03-23T15:35:30.503Z,7.70
2018-03-23T15:37:58.496Z,7.90
2018-03-23T15:40:26.659Z,8.00
2018-03-23T15:42:54.657Z,8.10
2018-03-23T15:45:22.640Z,8.20
2018-03-23T15:47:50.639Z,8.20
2018-03-23T15:50:18.640Z,8.00
2018-03-23T15:52:47.401Z,7.70
2018-03-23T15:55:15.419Z,7.60
2018-03-23T15:57:43.413Z,7.60
2018-03-23T16:00:12.164Z,7.40
2018-03-23T16:02:40.169Z,7.30
2018-03-23T16:05:09.312Z,7.40
2018-03-23T16:07:38.056Z,7.30
2018-03-23T16:10:06.101Z,7.30
2018-03-23T16:12:34.884Z,7.20
2018-03-23T16:15:03.645Z,7.00
2018-03-23T16:17:31.648Z,6.90
2018-03-23T16:19:59.664Z,6.80
2018-03-23T16:22:28.417Z,6.70
2018-03-23T16:24:56.441Z,6.70
2018-03-23T16:27:25.209Z,6.70
2018-03-23T16:29:53.199Z,6.60
2018-03-23T16:32:21.204Z,6.60
2018-03-23T16:34:49.985Z,6.50
2018-03-23T16:37:17.973Z,6.40
2018-03-23T16:39:45.984Z,6.40
2018-03-23T16:42:13.993Z,6.40
2018-03-23T16:44:41.983Z,6.40
2018-03-23T16:47:09.993Z,6.40
2018-03-23T16:49:38.003Z,6.40
2018-03-23T16:52:06.780Z,6.20
2018-03-23T16:54:34.813Z,6.20
2018-03-23T16:57:02.916Z,6.10
2018-03-23T16:59:30.905Z,6.10
2018-03-23T17:01:58.946Z,6.00
2018-03-23T17:04:26.923Z,6.10
2018-03-23T17:06:55.685Z,6.10
2018-03-23T17:09:23.696Z,6.00
2018-03-23T17:11:51.702Z,6.00
2018-03-23T17:14:19.700Z,6.00
2018-03-23T17:16:47.709Z,6.00
2018-03-23T17:19:15.716Z,6.00
2018-03-23T17:21:43.727Z,5.90
2018-03-23T17:24:12.492Z,5.80
2018-03-23T17:26:40.498Z,5.80
2018-03-23T17:29:09.252Z,5.70
2018-03-23T17:31:37.256Z,5.60
2018-03-23T17:34:05.261Z,5.60
2018-03-23T17:36:34.028Z,5.60
2018-03-23T17:39:02.038Z,5.50
2018-03-23T17:41:30.036Z,5.60
2018-03-23T17:43:59.201Z,5.50
2018-03-23T17:46:27.210Z,5.40
2018-03-23T17:48:55.259Z,5.40
2018-03-23T17:51:23.988Z,5.50
2018-03-23T17:53:51.989Z,5.40
2018-03-23T17:56:20.764Z,5.40
2018-03-23T17:58:48.759Z,5.30
2018-03-23T18:01:16.764Z,5.40
2018-03-23T18:03:45.537Z,5.40
2018-03-23T18:06:13.534Z,5.40
2018-03-23T18:08:41.539Z,5.40
2018-03-23T18:11:09.553Z,5.40
2018-03-23T18:13:38.560Z,5.30
2018-03-23T18:16:06.564Z,5.30
2018-03-23T18:18:34.580Z,5.40
2018-03-23T18:21:03.343Z,5.50
2018-03-23T18:23:31.348Z,5.50
2018-03-23T18:25:59.356Z,5.50
2018-03-23T18:28:27.361Z,5.30
2018-03-23T18:30:55.368Z,5.30
2018-03-23T18:33:23.405Z,5.30
2018-03-23T18:35:51.406Z,5.30
2018-03-23T18:38:19.412Z,5.30
2018-03-23T18:40:48.004Z,5.30
2018-03-23T18:43:15.988Z,5.40
2018-03-23T18:45:43.997Z,5.30
2018-03-23T18:48:12.004Z,5.20
2018-03-23T18:50:40.761Z,5.10
2018-03-23T18:53:08.773Z,5.00
2018-03-23T18:55:36.780Z,5.10
2018-03-23T18:58:04.776Z,5.00
2018-03-23T19:00:32.788Z,5.10
2018-03-23T19:03:00.792Z,5.00
2018-03-23T19:05:28.806Z,4.90
2018-03-23T19:07:57.568Z,4.80
2018-03-23T19:10:25.585Z,4.80
2018-03-23T19:12:54.345Z,4.70
2018-03-23T19:15:22.358Z,4.60
2018-03-23T19:17:50.371Z,4.60
2018-03-23T19:20:18.361Z,4.60
2018-03-23T19:22:46.374Z,4.60
2018-03-23T19:25:14.376Z,4.60
2018-03-23T19:27:42.368Z,4.60
2018-03-23T19:30:10.381Z,4.50
2018-03-23T19:32:38.384Z,4.50
2018-03-23T19:35:07.385Z,4.50
2018-03-23T19:37:35.390Z,4.60
2018-03-23T19:40:03.393Z,4.60
2018-03-23T19:42:31.392Z,4.50
2018-03-23T19:45:12.469Z,4.40
2018-03-23T19:47:40.427Z,4.40
2018-03-23T19:50:08.415Z,4.50
2018-03-23T19:52:36.425Z,4.50
2018-03-23T19:55:05.204Z,4.40
2018-03-23T19:57:34.188Z,4.40
2018-03-23T20:00:02.204Z,4.40
2018-03-23T20:02:30.220Z,4.40
2018-03-23T20:04:58.218Z,4.40
2018-03-23T20:07:26.232Z,4.40
2018-03-23T20:09:54.237Z,4.40
2018-03-23T20:12:22.224Z,4.30
2018-03-23T20:14:50.238Z,4.20
2018-03-23T20:17:24.034Z,4.20
2018-03-23T20:19:52.837Z,4.00
2018-03-23T20:22:20.817Z,4.00
2018-03-23T20:24:49.572Z,4.00
2018-03-23T20:30:15.156Z,4.10
2018-03-23T20:32:43.212Z,4.10
2018-03-23T20:35:11.222Z,4.20
2018-03-23T20:37:39.212Z,4.20
2018-03-23T20:40:07.225Z,4.20
2018-03-23T20:42:36.002Z,4.10
2018-03-23T20:45:04.002Z,4.10
2018-03-23T20:47:32.780Z,3.90
2018-03-23T20:50:01.001Z,3.90
2018-03-23T20:52:29.001Z,3.90
2018-03-23T20:54:57.031Z,3.80
2018-03-23T20:57:25.831Z,3.80
2018-03-23T20:59:53.917Z,3.80
2018-03-23T21:02:23.432Z,3.70
2018-03-23T21:04:55.380Z,3.70
2018-03-23T21:07:23.394Z,3.80
2018-03-23T21:09:51.392Z,3.90
2018-03-23T21:12:20.164Z,4.00
2018-03-23T21:14:48.173Z,3.90
2018-03-23T21:17:17.233Z,4.00
2018-03-23T21:19:45.216Z,3.90
2018-03-23T21:22:13.225Z,3.90
2018-03-23T21:24:41.232Z,3.90
2018-03-23T21:27:10.027Z,4.00
2018-03-23T21:29:38.018Z,3.90
2018-03-23T21:32:06.788Z,3.90
2018-03-23T21:34:34.808Z,3.90
2018-03-23T21:37:03.576Z,3.80
2018-03-23T21:39:31.585Z,3.80
2018-03-23T21:42:00.360Z,3.80
2018-03-23T21:44:28.368Z,3.80
2018-03-23T21:46:57.165Z,3.80
2018-03-23T21:49:25.144Z,3.80
2018-03-23T21:51:53.156Z,3.80
2018-03-23T21:54:21.165Z,3.80
2018-03-23T21:56:50.168Z,3.70
2018-03-23T21:59:18.214Z,3.70
2018-03-23T22:01:46.981Z,3.60
2018-03-23T22:04:14.983Z,3.60
2018-03-23T22:06:46.607Z,3.50
2018-03-23T22:09:14.628Z,3.50
2018-03-23T22:11:44.128Z,3.40
2018-03-23T22:14:12.135Z,3.40
2018-03-23T22:16:40.153Z,3.50
2018-03-23T22:19:08.160Z,3.50
2018-03-23T22:21:38.101Z,3.50
2018-03-23T22:24:06.324Z,3.60
2018-03-23T22:26:35.088Z,3.60
2018-03-23T22:29:03.094Z,3.50
2018-03-23T22:31:31.114Z,3.50
2018-03-23T22:34:00.042Z,3.50
2018-03-23T22:36:28.048Z,3.50
2018-03-23T22:38:56.060Z,3.50
2018-03-23T22:41:24.827Z,3.50
2018-03-23T22:43:52.837Z,3.40
2018-03-23T22:46:21.729Z,3.50
2018-03-23T22:48:49.809Z,3.50
2018-03-23T22:51:17.817Z,3.40
2018-03-23T22:53:46.591Z,3.40
2018-03-23T22:56:14.603Z,3.30
2018-03-23T22:58:42.599Z,3.40
2018-03-23T23:01:10.604Z,3.40
2018-03-23T23:03:38.596Z,3.40
2018-03-23T23:06:06.605Z,3.40
2018-03-23T23:08:34.600Z,3.40
2018-03-23T23:11:02.620Z,3.40
2018-03-23T23:13:30.632Z,3.40
2018-03-23T23:15:58.662Z,3.40
2018-03-23T23:18:27.452Z,3.20
2018-03-23T23:20:55.458Z,3.20
2018-03-23T23:23:23.457Z,3.20
2018-03-23T23:25:51.464Z,3.30
2018-03-23T23:28:19.472Z,3.30
2018-03-23T23:30:47.482Z,3.40
2018-03-23T23:33:16.257Z,3.50
2018-03-23T23:35:44.262Z,3.50
2018-03-23T23:38:13.025Z,3.40
2018-03-23T23:40:41.032Z,3.40
2018-03-23T23:43:09.040Z,3.30
2018-03-23T23:45:37.032Z,3.30
2018-03-23T23:48:05.044Z,3.30
2018-03-23T23:50:33.049Z,3.20
2018-03-23T23:53:01.049Z,3.20
2018-03-23T23:55:29.044Z,3.20
2018-03-23T23:57:57.824Z,3.20
